Terminal Aerodrome Forecast
Issued by NWS Jackson, MS

Home | Current Version | Previous Version | Text Only | Print | Product List | Glossary On
Versions: 1 2 3 4 5 6 7 8 9 10 11 12 13 14 15 16 17 18 19 20 21
000
FTUS44 KJAN 072333
TAFHBG
TAF
KHBG 072333Z 0800/0824 19020G35KT 3SM TSRA BKN035CB BKN120
     FM080100 19006KT P6SM SCT120
     FM081100 00000KT P6SM BKN012
     FM081500 22008KT P6SM SCT020=

USA.gov is the U.S. government's official web portal to all federal, state and local government web resources and services.